Time;durP1;ratioP1;P1;durP2;ratioP2;P2;SDS_P1;SDS_P2;PMS_P1;PMS_P2;Temp;Humidity;BMP_temperature;BMP_pressure;BME280_temperature;BME280_humidity;BME280_pressure;Samples;Min_cycle;Max_cycle;Signal;HPM_P1;HPM_P2
2023/01/10 00:01:51;;;;;;;15.10;5.40;;;5.40;99.90;;;;;;4947048;28;20023;-84
2023/01/10 00:04:17;;;;;;;9.13;4.13;;;5.50;99.90;;;;;;4931693;28;20069;-84
2023/01/10 00:06:43;;;;;;;10.35;3.70;;;5.40;99.90;;;;;;4932433;28;20089;-84
2023/01/10 00:09:09;;;;;;;7.55;3.72;;;5.50;99.90;;;;;;4945657;28;20042;-84
2023/01/10 00:14:19;;;;;;;8.93;3.63;;;5.50;99.90;;;;;;4950450;28;20037;-84
2023/01/10 00:16:44;;;;;;;10.70;4.25;;;5.50;99.90;;;;;;4933258;28;20403;-84
2023/01/10 00:19:10;;;;;;;7.65;2.83;;;5.40;99.90;;;;;;4935395;28;20050;-85
2023/01/10 00:21:36;;;;;;;13.50;4.95;;;5.40;99.90;;;;;;4930259;28;20522;-85
2023/01/10 00:24:16;;;;;;;13.38;4.80;;;5.40;99.90;;;;;;4917751;28;20054;-84
2023/01/10 00:26:43;;;;;;;19.17;6.95;;;5.40;99.90;;;;;;4947830;28;20042;-84
2023/01/10 00:29:08;;;;;;;9.60;5.63;;;5.50;99.90;;;;;;4932139;28;20050;-84
2023/01/10 00:31:34;;;;;;;6.88;2.95;;;5.40;99.90;;;;;;4920533;28;20026;-84
2023/01/10 00:33:59;;;;;;;11.85;5.55;;;5.40;99.90;;;;;;4920269;28;20027;-85
2023/01/10 00:36:25;;;;;;;11.90;5.68;;;5.30;99.90;;;;;;4924913;28;20068;-84
2023/01/10 00:38:51;;;;;;;13.07;5.00;;;5.40;99.90;;;;;;4930724;28;20031;-85
2023/01/10 00:44:02;;;;;;;13.15;5.28;;;5.40;99.90;;;;;;4949216;28;20413;-84
2023/01/10 00:46:27;;;;;;;15.40;6.32;;;5.50;99.90;;;;;;4928775;28;20388;-84
2023/01/10 00:48:53;;;;;;;10.25;4.03;;;5.50;99.90;;;;;;4945604;28;20042;-83
2023/01/10 00:51:19;;;;;;;5.78;2.65;;;5.50;99.90;;;;;;4946163;28;20518;-84
2023/01/10 00:53:44;;;;;;;11.38;5.65;;;5.40;99.90;;;;;;4948779;28;20031;-85
2023/01/10 00:56:10;;;;;;;5.30;2.45;;;5.50;99.90;;;;;;4934400;28;20039;-84
2023/01/10 00:58:35;;;;;;;2.70;2.15;;;5.50;99.90;;;;;;4934912;28;20038;-84
2023/01/10 01:01:01;;;;;;;11.25;5.18;;;5.50;99.90;;;;;;4931306;28;20038;-83
2023/01/10 01:03:26;;;;;;;12.98;2.90;;;5.60;99.90;;;;;;4931363;28;20667;-84
2023/01/10 01:05:52;;;;;;;8.02;3.15;;;5.60;99.90;;;;;;4948373;28;20475;-84
2023/01/10 01:08:18;;;;;;;10.93;3.38;;;5.50;99.90;;;;;;4932258;28;20035;-84
2023/01/10 01:10:44;;;;;;;11.60;3.40;;;5.50;99.90;;;;;;4935795;28;20041;-84
2023/01/10 01:13:15;;;;;;;11.43;4.00;;;5.50;99.90;;;;;;4915833;28;20117;-83
2023/01/10 01:15:40;;;;;;;15.40;4.30;;;5.50;99.90;;;;;;4947452;28;20518;-84
2023/01/10 01:18:06;;;;;;;13.05;3.75;;;5.50;99.90;;;;;;4918715;28;20141;-84
2023/01/10 01:20:32;;;;;;;11.20;3.97;;;5.30;99.90;;;;;;4952578;28;20399;-84
2023/01/10 01:22:57;;;;;;;9.45;3.15;;;5.40;99.90;;;;;;4946551;28;20046;-84
2023/01/10 01:25:23;;;;;;;11.13;3.28;;;5.50;99.90;;;;;;4932189;28;20491;-83
2023/01/10 01:27:49;;;;;;;4.10;2.28;;;5.40;99.90;;;;;;4945839;28;20399;-84
2023/01/10 01:30:14;;;;;;;17.95;3.45;;;5.30;99.90;;;;;;4912886;28;20480;-84
2023/01/10 01:32:40;;;;;;;9.80;3.95;;;5.40;99.90;;;;;;4927087;28;20411;-84
2023/01/10 01:35:06;;;;;;;17.17;5.15;;;5.40;99.90;;;;;;4934070;28;20043;-84
2023/01/10 01:37:32;;;;;;;5.05;1.85;;;5.40;99.90;;;;;;4942847;28;20024;-84
2023/01/10 01:39:58;;;;;;;10.15;2.90;;;5.30;99.90;;;;;;4916632;28;20034;-86
2023/01/10 01:42:25;;;;;;;12.48;5.13;;;5.30;99.90;;;;;;4930758;28;20392;-85
2023/01/10 01:45:21;;;;;;;5.00;2.35;;;5.30;99.90;;;;;;4948310;28;20038;-85
2023/01/10 01:47:55;;;;;;;6.47;2.40;;;5.30;99.90;;;;;;4961855;28;20035;-84
2023/01/10 01:50:23;;;;;;;13.50;3.00;;;5.30;99.90;;;;;;4923412;28;20049;-85
2023/01/10 01:52:50;;;;;;;8.68;2.22;;;5.30;99.90;;;;;;4947577;28;20061;-84
2023/01/10 01:55:16;;;;;;;12.10;3.17;;;5.30;99.90;;;;;;4935573;28;20032;-84
2023/01/10 01:57:42;;;;;;;8.25;2.90;;;5.30;99.90;;;;;;4930183;28;20098;-84
2023/01/10 02:00:09;;;;;;;16.85;3.67;;;5.30;99.90;;;;;;4940970;28;21187;-83
2023/01/10 02:02:37;;;;;;;15.50;2.90;;;5.40;99.90;;;;;;4915648;28;20391;-84
2023/01/10 02:05:10;;;;;;;6.47;2.53;;;5.40;99.90;;;;;;4946428;28;20031;-84
2023/01/10 02:07:37;;;;;;;14.07;2.97;;;5.40;99.90;;;;;;4931596;28;20070;-84
2023/01/10 02:10:14;;;;;;;5.28;2.13;;;5.40;99.90;;;;;;4941856;28;20498;-84
2023/01/10 02:12:40;;;;;;;10.20;2.65;;;5.30;99.90;;;;;;4931326;28;20102;-84
2023/01/10 02:15:06;;;;;;;7.45;1.92;;;5.40;99.90;;;;;;4944791;28;20027;-84
2023/01/10 02:17:32;;;;;;;3.47;1.08;;;5.40;99.90;;;;;;4930562;28;20031;-84
2023/01/10 02:20:02;;;;;;;10.10;2.47;;;5.40;99.90;;;;;;4940527;28;20023;-84
2023/01/10 02:22:59;;;;;;;10.32;2.30;;;5.40;99.90;;;;;;4913983;28;20038;-84
2023/01/10 02:25:31;;;;;;;;;;;5.40;99.90;;;;;;4934287;28;21134;-84
2023/01/10 02:28:17;;;;;;;12.68;2.55;;;5.30;99.90;;;;;;4962245;28;19917;-84
2023/01/10 02:30:56;;;;;;;5.53;1.92;;;5.40;99.90;;;;;;4966119;28;20027;-84
2023/01/10 02:33:33;;;;;;;7.63;1.10;;;5.40;99.90;;;;;;4964690;28;20577;-84
2023/01/10 02:36:05;;;;;;;2.22;1.23;;;5.50;99.90;;;;;;4917178;28;20023;-84
2023/01/10 02:38:48;;;;;;;4.53;1.13;;;5.50;99.90;;;;;;4944846;28;20070;-84
2023/01/10 02:41:42;;;;;;;6.95;1.80;;;5.50;99.90;;;;;;4963062;28;20059;-84
2023/01/10 02:44:23;;;;;;;5.40;2.15;;;5.50;99.90;;;;;;4947120;28;20075;-84
2023/01/10 02:46:48;;;;;;;7.75;2.92;;;5.40;99.90;;;;;;4938443;28;20031;-84
2023/01/10 02:49:14;;;;;;;8.88;1.85;;;5.40;99.90;;;;;;4945200;28;20807;-84
2023/01/10 02:51:40;;;;;;;11.30;0.93;;;5.30;99.90;;;;;;4947890;28;20252;-84
2023/01/10 02:54:08;;;;;;;10.30;1.42;;;5.30;99.90;;;;;;4949342;28;20121;-85
2023/01/10 02:57:01;;;;;;;2.58;1.15;;;5.30;99.90;;;;;;4933021;28;20034;-85
2023/01/10 02:59:30;;;;;;;10.63;2.20;;;5.30;99.90;;;;;;4948860;28;20031;-83
2023/01/10 03:02:11;;;;;;;4.50;0.95;;;5.30;99.90;;;;;;4966568;28;20031;-84
2023/01/10 03:05:08;;;;;;;9.90;2.08;;;5.40;99.90;;;;;;4930633;28;20035;-85
2023/01/10 03:07:58;;;;;;;7.93;1.75;;;5.30;99.90;;;;;;4938650;28;20034;-85
2023/01/10 03:10:42;;;;;;;10.57;2.17;;;5.30;99.90;;;;;;4917778;28;20034;-84
2023/01/10 03:13:18;;;;;;;2.85;1.77;;;5.30;99.90;;;;;;4936807;28;20035;-84
2023/01/10 03:15:43;;;;;;;6.63;1.63;;;5.30;99.90;;;;;;4937637;28;20111;-84
2023/01/10 03:18:14;;;;;;;5.38;1.48;;;5.20;99.90;;;;;;4917285;28;20118;-83
2023/01/10 03:20:41;;;;;;;7.13;1.63;;;5.30;99.90;;;;;;4947267;28;20550;-85
2023/01/10 03:23:06;;;;;;;6.03;1.35;;;5.30;99.90;;;;;;4934166;28;20039;-85
2023/01/10 03:25:34;;;;;;;9.55;2.72;;;5.30;99.90;;;;;;4948825;28;20023;-85
2023/01/10 03:28:08;;;;;;;11.60;2.42;;;5.30;99.90;;;;;;4932514;28;20399;-84
2023/01/10 03:30:48;;;;;;;13.63;2.05;;;5.30;99.90;;;;;;4948915;28;20091;-84
2023/01/10 03:33:15;;;;;;;7.50;2.35;;;5.20;99.90;;;;;;4964878;28;20124;-84
2023/01/10 03:35:56;;;;;;;5.75;1.17;;;5.20;99.90;;;;;;4932989;28;20035;-83
2023/01/10 03:38:40;;;;;;;14.13;1.70;;;5.20;99.90;;;;;;4931383;28;20023;-83
2023/01/10 03:41:15;;;;;;;14.60;2.95;;;5.10;99.90;;;;;;4966963;28;20030;-84
2023/01/10 03:47:04;;;;;;;12.27;2.50;;;5.20;99.90;;;;;;4954093;28;20090;-85
2023/01/10 03:49:29;;;;;;;5.65;2.13;;;5.10;99.90;;;;;;4949173;28;20094;-84
2023/01/10 03:51:55;;;;;;;8.80;2.25;;;5.10;99.90;;;;;;4918335;28;20030;-84
2023/01/10 03:54:21;;;;;;;9.50;2.97;;;5.00;99.90;;;;;;4934851;28;20421;-84
2023/01/10 03:56:48;;;;;;;4.50;1.77;;;5.10;99.90;;;;;;4952855;28;20042;-84
2023/01/10 03:59:15;;;;;;;17.15;2.28;;;5.00;99.90;;;;;;4932646;28;20114;-85
2023/01/10 04:01:40;;;;;;;11.57;2.13;;;5.00;99.90;;;;;;4926870;28;20023;-82
2023/01/10 04:04:06;;;;;;;6.85;1.88;;;5.00;99.90;;;;;;4945952;28;20054;-85
2023/01/10 04:06:32;;;;;;;12.90;3.83;;;5.00;99.90;;;;;;4950240;28;20035;-85
2023/01/10 04:08:57;;;;;;;9.05;2.60;;;5.00;99.90;;;;;;4947360;28;20081;-84
2023/01/10 04:11:23;;;;;;;3.60;0.75;;;4.90;99.90;;;;;;4931618;28;20035;-82
2023/01/10 04:13:48;;;;;;;13.43;2.25;;;4.80;99.90;;;;;;4948226;28;20027;-84
2023/01/10 04:16:14;;;;;;;4.22;1.33;;;4.70;99.90;;;;;;4936043;28;20056;-84
2023/01/10 04:18:39;;;;;;;9.15;1.67;;;4.70;99.90;;;;;;4946308;28;20050;-84
2023/01/10 04:21:05;;;;;;;11.57;2.38;;;4.70;99.90;;;;;;4934117;28;20146;-85
2023/01/10 04:23:31;;;;;;;7.30;2.28;;;4.90;99.90;;;;;;4932820;28;20031;-83
2023/01/10 04:25:57;;;;;;;7.15;2.15;;;4.90;99.90;;;;;;4930751;28;20030;-85
2023/01/10 04:28:22;;;;;;;6.78;1.42;;;4.80;99.90;;;;;;4947570;28;20174;-85
2023/01/10 04:30:48;;;;;;;12.65;1.75;;;4.90;99.90;;;;;;4949410;28;20380;-84
2023/01/10 04:33:13;;;;;;;6.15;1.67;;;4.80;99.90;;;;;;4930410;28;20081;-85
2023/01/10 04:35:39;;;;;;;10.05;2.20;;;4.80;99.90;;;;;;4952892;28;20114;-85
2023/01/10 04:38:04;;;;;;;11.60;1.75;;;4.90;99.90;;;;;;4948112;28;20041;-85
2023/01/10 04:40:30;;;;;;;11.35;1.35;;;4.80;99.90;;;;;;4945525;28;20041;-83
2023/01/10 04:42:55;;;;;;;5.47;1.20;;;4.80;99.90;;;;;;4952643;28;20094;-83
2023/01/10 04:45:21;;;;;;;12.27;2.97;;;4.70;99.90;;;;;;4946536;28;20092;-85
2023/01/10 04:47:50;;;;;;;5.82;1.30;;;4.80;99.90;;;;;;4934579;28;20465;-85
2023/01/10 04:50:16;;;;;;;11.55;2.65;;;4.80;99.90;;;;;;4932848;28;20050;-85
2023/01/10 04:52:42;;;;;;;5.57;1.33;;;4.80;99.90;;;;;;4917858;28;20065;-85
2023/01/10 04:55:08;;;;;;;10.32;2.33;;;4.70;99.90;;;;;;4931251;28;20023;-85
2023/01/10 04:57:34;;;;;;;12.65;2.65;;;4.70;99.90;;;;;;4916298;28;20051;-83
2023/01/10 04:59:59;;;;;;;12.95;1.98;;;4.70;99.90;;;;;;4918145;28;20118;-86
2023/01/10 05:02:25;;;;;;;13.73;2.38;;;4.70;99.90;;;;;;4944532;28;20123;-85
2023/01/10 05:04:50;;;;;;;4.40;1.77;;;4.60;99.90;;;;;;4933704;28;20405;-85
2023/01/10 05:07:16;;;;;;;1.58;0.93;;;4.70;99.90;;;;;;4944593;28;20558;-86
2023/01/10 05:09:42;;;;;;;11.10;2.15;;;4.70;99.90;;;;;;4945972;28;20503;-85
2023/01/10 05:12:07;;;;;;;10.98;2.60;;;4.80;99.90;;;;;;4948852;28;20116;-85
2023/01/10 05:14:33;;;;;;;7.97;1.38;;;4.80;99.90;;;;;;4929713;28;20034;-85
2023/01/10 05:16:58;;;;;;;6.20;1.83;;;4.70;99.90;;;;;;4931699;28;20122;-86
2023/01/10 05:19:24;;;;;;;8.00;1.45;;;4.80;99.90;;;;;;4930479;28;20394;-86
2023/01/10 05:21:51;;;;;;;8.93;1.65;;;4.80;99.90;;;;;;4950975;28;20075;-85
2023/01/10 05:24:16;;;;;;;5.22;1.13;;;4.80;99.90;;;;;;4946059;28;20060;-86
2023/01/10 05:26:42;;;;;;;7.10;1.70;;;4.80;99.90;;;;;;4941683;28;20038;-85
2023/01/10 05:29:11;;;;;;;7.63;1.30;;;4.80;99.90;;;;;;4942876;28;20042;-86
2023/01/10 05:31:36;;;;;;;4.68;0.75;;;4.80;99.90;;;;;;4931694;28;20037;-86
2023/01/10 05:34:02;;;;;;;5.82;1.13;;;4.80;99.90;;;;;;4934501;28;20039;-85
2023/01/10 05:36:27;;;;;;;2.90;1.15;;;4.90;99.90;;;;;;4914443;29;20037;-85
2023/01/10 05:38:53;;;;;;;11.30;1.88;;;4.70;99.90;;;;;;4943707;28;20108;-87
2023/01/10 05:41:18;;;;;;;4.70;1.13;;;4.80;99.90;;;;;;4943131;28;20078;-83
2023/01/10 05:43:44;;;;;;;9.93;2.40;;;4.80;99.90;;;;;;4932092;28;20032;-84
2023/01/10 05:46:09;;;;;;;6.55;2.10;;;4.80;99.90;;;;;;4945569;28;20047;-87
2023/01/10 05:48:35;;;;;;;11.82;1.63;;;4.80;99.90;;;;;;4936885;28;20030;-86
2023/01/10 05:51:00;;;;;;;4.72;1.42;;;4.80;99.90;;;;;;4946185;28;20031;-83
2023/01/10 05:53:26;;;;;;;12.80;1.67;;;4.80;99.90;;;;;;4921212;28;20041;-87
2023/01/10 05:55:53;;;;;;;12.75;1.42;;;4.70;99.90;;;;;;4962210;28;20098;-85
2023/01/10 05:58:18;;;;;;;7.95;3.25;;;4.70;99.90;;;;;;4947509;28;20035;-85
2023/01/10 06:00:44;;;;;;;22.77;2.83;;;4.70;99.90;;;;;;4947432;28;20041;-87
2023/01/10 06:03:09;;;;;;;5.18;1.00;;;4.70;99.90;;;;;;4931328;28;20039;-86
2023/01/10 06:05:35;;;;;;;4.28;1.38;;;4.70;99.90;;;;;;4933904;28;20041;-88
2023/01/10 06:08:00;;;;;;;13.10;2.35;;;4.70;99.90;;;;;;4929872;28;20019;-85
2023/01/10 06:10:26;;;;;;;5.43;1.25;;;4.70;99.90;;;;;;4931585;28;20065;-86
2023/01/10 06:12:52;;;;;;;10.07;2.00;;;4.70;99.90;;;;;;4932926;28;20478;-86
2023/01/10 06:15:17;;;;;;;7.38;1.38;;;4.60;99.90;;;;;;4950446;28;20153;-86
2023/01/10 06:17:44;;;;;;;4.78;1.27;;;4.60;99.90;;;;;;4916171;28;20046;-86
2023/01/10 06:20:11;;;;;;;13.00;2.38;;;4.60;99.90;;;;;;4947995;28;20031;-86
2023/01/10 06:22:39;;;;;;;14.20;2.45;;;4.50;99.90;;;;;;4934517;28;20063;-84
2023/01/10 06:25:06;;;;;;;15.90;1.48;;;4.50;99.90;;;;;;4948146;28;20045;-86
2023/01/10 06:27:31;;;;;;;4.55;1.33;;;4.50;99.90;;;;;;4944367;28;20122;-86
2023/01/10 06:30:00;;;;;;;5.32;1.92;;;4.60;99.90;;;;;;4934032;28;20451;-85
2023/01/10 06:32:26;;;;;;;9.23;2.15;;;4.60;99.90;;;;;;4930157;28;20031;-84
2023/01/10 06:34:51;;;;;;;5.68;1.80;;;4.60;99.90;;;;;;4917964;28;20365;-87
2023/01/10 06:37:17;;;;;;;6.82;2.05;;;4.60;99.90;;;;;;4951057;28;20090;-86
2023/01/10 06:39:45;;;;;;;17.65;3.78;;;4.50;99.90;;;;;;4966862;28;20026;-85
2023/01/10 06:42:11;;;;;;;17.95;2.33;;;4.50;99.90;;;;;;4931885;28;20034;-87
2023/01/10 06:44:36;;;;;;;10.52;1.30;;;4.60;99.90;;;;;;4936367;28;20057;-87
2023/01/10 06:47:02;;;;;;;1.90;1.00;;;4.60;99.90;;;;;;4932144;28;20035;-83
2023/01/10 06:49:28;;;;;;;9.20;1.90;;;4.70;99.90;;;;;;4923100;28;20038;-83
2023/01/10 06:51:53;;;;;;;7.80;1.63;;;4.70;99.90;;;;;;4918055;28;20039;-84
2023/01/10 06:54:19;;;;;;;6.10;1.20;;;4.70;99.90;;;;;;4924477;28;20073;-86
2023/01/10 06:56:47;;;;;;;6.18;1.27;;;4.70;99.90;;;;;;4955117;28;20026;-86
2023/01/10 06:59:12;;;;;;;9.32;1.70;;;4.70;99.90;;;;;;4935451;28;20511;-86
2023/01/10 07:01:38;;;;;;;17.83;2.33;;;4.70;99.90;;;;;;4925748;28;20066;-85
2023/01/10 07:04:03;;;;;;;6.63;1.92;;;4.70;99.90;;;;;;4936550;28;20039;-87
2023/01/10 07:06:30;;;;;;;7.28;1.10;;;4.70;99.90;;;;;;4952013;28;20042;-87
2023/01/10 07:08:56;;;;;;;18.17;3.33;;;4.70;99.90;;;;;;4953647;28;20494;-87
2023/01/10 07:11:21;;;;;;;7.82;1.60;;;4.80;99.90;;;;;;4942475;28;20031;-87
2023/01/10 07:13:47;;;;;;;11.82;2.38;;;4.80;99.90;;;;;;4919807;28;20440;-86
2023/01/10 07:16:13;;;;;;;22.70;3.33;;;4.80;99.90;;;;;;4918403;28;20114;-87
2023/01/10 07:18:40;;;;;;;12.88;2.50;;;4.80;99.90;;;;;;4940619;28;20118;-84
2023/01/10 07:21:05;;;;;;;12.50;2.63;;;4.80;99.90;;;;;;4932186;28;20150;-85
2023/01/10 07:23:32;;;;;;;16.65;2.38;;;4.70;99.90;;;;;;4943079;28;20473;-89
2023/01/10 07:26:01;;;;;;;18.15;3.30;;;4.80;99.90;;;;;;4949609;28;20760;-86
2023/01/10 07:28:26;;;;;;;6.80;1.42;;;4.90;99.90;;;;;;4951887;28;20443;-84
2023/01/10 07:30:52;;;;;;;18.63;2.67;;;4.90;99.90;;;;;;4931996;28;20034;-87
2023/01/10 07:33:18;;;;;;;11.07;2.22;;;4.80;99.90;;;;;;4921962;28;20037;-87
2023/01/10 07:35:43;;;;;;;14.85;2.53;;;4.90;99.90;;;;;;4935716;28;20039;-86
2023/01/10 07:38:09;;;;;;;12.07;3.03;;;4.90;99.90;;;;;;4921761;28;20039;-86
2023/01/10 07:40:35;;;;;;;13.13;1.85;;;4.90;99.90;;;;;;4921847;28;20027;-85
2023/01/10 07:43:01;;;;;;;13.77;2.22;;;4.90;99.90;;;;;;4946383;28;20047;-86
2023/01/10 07:45:27;;;;;;;12.57;2.58;;;4.90;99.90;;;;;;4921400;28;20562;-87
2023/01/10 07:47:59;;;;;;;11.80;2.10;;;4.90;99.90;;;;;;4919401;28;20114;-86
2023/01/10 07:50:26;;;;;;;11.70;2.30;;;5.00;99.90;;;;;;4931575;28;20050;-83
2023/01/10 07:52:51;;;;;;;16.27;1.70;;;5.00;99.90;;;;;;4936153;28;20093;-87
2023/01/10 07:55:17;;;;;;;20.10;1.77;;;4.90;99.90;;;;;;4933456;28;20487;-87
2023/01/10 07:57:43;;;;;;;12.25;2.33;;;5.00;99.90;;;;;;4932894;29;20046;-87
2023/01/10 08:00:09;;;;;;;11.73;1.45;;;5.00;99.90;;;;;;4932508;28;20043;-87
2023/01/10 08:02:35;;;;;;;10.00;3.05;;;5.00;99.90;;;;;;4923133;28;20403;-87
2023/01/10 08:05:00;;;;;;;8.35;1.60;;;5.00;99.90;;;;;;4934455;28;20043;-86
2023/01/10 08:07:28;;;;;;;14.38;2.53;;;5.00;99.90;;;;;;4918156;28;20045;-85
2023/01/10 08:09:53;;;;;;;10.60;2.22;;;5.10;99.90;;;;;;4935592;28;20038;-85
2023/01/10 08:12:19;;;;;;;9.50;2.00;;;5.00;99.90;;;;;;4936464;28;20038;-86
2023/01/10 08:14:45;;;;;;;12.63;2.10;;;5.00;99.90;;;;;;4948315;28;20042;-85
2023/01/10 08:17:10;;;;;;;26.98;3.42;;;5.10;99.90;;;;;;4936159;28;20584;-83
2023/01/10 08:19:36;;;;;;;10.50;2.38;;;5.10;99.90;;;;;;4919858;28;20027;-84
2023/01/10 08:22:02;;;;;;;17.08;2.97;;;5.10;99.90;;;;;;4934700;28;20038;-87
2023/01/10 08:24:27;;;;;;;13.73;2.25;;;5.10;99.90;;;;;;4934807;28;20034;-87
2023/01/10 08:26:53;;;;;;;8.43;1.77;;;5.10;99.90;;;;;;4952781;28;20030;-88
2023/01/10 08:29:18;;;;;;;17.67;3.42;;;5.20;99.90;;;;;;4936446;28;20484;-86
2023/01/10 08:31:44;;;;;;;22.80;3.72;;;5.20;99.90;;;;;;4937229;28;20741;-87
2023/01/10 08:34:12;;;;;;;14.55;2.78;;;5.20;99.90;;;;;;4933244;28;20035;-87
2023/01/10 08:36:37;;;;;;;9.20;3.15;;;5.20;99.90;;;;;;4921494;28;20031;-88
2023/01/10 08:39:03;;;;;;;16.65;2.65;;;5.20;99.90;;;;;;4923508;28;20041;-87
2023/01/10 08:41:30;;;;;;;14.75;3.08;;;5.20;99.90;;;;;;4949358;28;20050;-86
2023/01/10 08:43:56;;;;;;;16.10;2.60;;;5.30;99.90;;;;;;4920421;28;20111;-87
2023/01/10 08:46:22;;;;;;;5.78;1.27;;;5.20;99.90;;;;;;4934401;28;20027;-87
2023/01/10 08:48:49;;;;;;;16.90;2.38;;;5.20;99.90;;;;;;4951008;28;20023;-86
2023/01/10 08:51:14;;;;;;;27.25;3.28;;;5.20;99.90;;;;;;4950990;28;20035;-82
2023/01/10 08:53:40;;;;;;;21.20;3.20;;;5.20;99.90;;;;;;4920003;28;20038;-84
2023/01/10 08:56:06;;;;;;;11.02;1.75;;;5.20;99.90;;;;;;4932775;28;20034;-84
2023/01/10 08:58:32;;;;;;;16.75;3.03;;;5.20;99.90;;;;;;4934880;28;20035;-83
2023/01/10 09:00:57;;;;;;;6.65;1.35;;;5.20;99.90;;;;;;4945417;28;20431;-84
2023/01/10 09:03:23;;;;;;;17.35;2.30;;;5.20;99.90;;;;;;4947215;28;20180;-84
2023/01/10 09:05:49;;;;;;;20.02;2.92;;;5.10;99.90;;;;;;4949435;28;20066;-84
2023/01/10 09:08:14;;;;;;;13.60;1.70;;;5.20;99.90;;;;;;4931744;28;20036;-84
2023/01/10 09:10:40;;;;;;;10.77;2.55;;;5.10;99.90;;;;;;4929516;28;20035;-83
2023/01/10 09:13:06;;;;;;;13.80;2.28;;;5.20;99.90;;;;;;4931674;28;20384;-83
2023/01/10 09:15:33;;;;;;;14.13;3.10;;;5.20;99.90;;;;;;4949370;28;20546;-81
2023/01/10 09:18:00;;;;;;;4.57;1.27;;;5.20;99.90;;;;;;4931730;28;20134;-84
2023/01/10 09:20:26;;;;;;;14.85;2.50;;;5.20;99.90;;;;;;4945306;28;20041;-84
2023/01/10 09:22:51;;;;;;;7.05;1.35;;;5.20;99.90;;;;;;4920780;28;20039;-83
2023/01/10 09:25:17;;;;;;;15.63;3.10;;;5.20;99.90;;;;;;4935185;28;20447;-83
2023/01/10 09:27:42;;;;;;;14.05;2.60;;;5.20;99.90;;;;;;4920859;28;20031;-83
2023/01/10 09:30:09;;;;;;;11.48;1.80;;;5.20;99.90;;;;;;4933085;28;20815;-83
2023/01/10 09:32:34;;;;;;;11.63;1.70;;;5.30;99.90;;;;;;4920764;28;20023;-83
2023/01/10 09:35:00;;;;;;;8.27;1.92;;;5.30;99.90;;;;;;4921602;28;20035;-83
2023/01/10 09:37:25;;;;;;;7.30;2.08;;;5.30;99.90;;;;;;4933497;28;20037;-83
2023/01/10 09:39:54;;;;;;;12.60;2.03;;;5.30;99.90;;;;;;4916805;28;20031;-83
2023/01/10 09:42:22;;;;;;;10.63;2.60;;;5.30;99.90;;;;;;4945383;28;20033;-83
2023/01/10 09:45:09;;;;;;;18.35;2.10;;;5.30;99.90;;;;;;4963562;28;20035;-83
2023/01/10 09:47:53;;;;;;;23.17;3.15;;;5.40;99.90;;;;;;4966572;28;20027;-84
2023/01/10 09:50:37;;;;;;;16.88;3.55;;;5.40;99.90;;;;;;4963648;28;20515;-83
2023/01/10 09:53:05;;;;;;;11.43;1.73;;;5.40;99.90;;;;;;4933820;28;20034;-83
2023/01/10 09:55:32;;;;;;;9.63;1.98;;;5.50;99.90;;;;;;4943696;28;20062;-83
2023/01/10 09:58:00;;;;;;;15.77;2.88;;;5.60;99.90;;;;;;4929471;28;20036;-83
2023/01/10 10:00:55;;;;;;;22.40;3.50;;;5.70;99.90;;;;;;4949381;28;20034;-82
2023/01/10 10:03:32;;;;;;;14.85;2.42;;;5.70;99.90;;;;;;4933072;28;20039;-81
2023/01/10 10:05:58;;;;;;;12.98;2.55;;;5.80;99.90;;;;;;4948469;28;20515;-83
2023/01/10 10:08:24;;;;;;;11.30;2.97;;;5.90;99.90;;;;;;4934476;28;20038;-83
2023/01/10 10:11:09;;;;;;;7.18;1.65;;;6.00;99.90;;;;;;4931505;28;20066;-81
2023/01/10 10:13:46;;;;;;;19.38;2.42;;;6.10;99.90;;;;;;4966343;28;20517;-82
2023/01/10 10:16:30;;;;;;;11.43;2.63;;;6.20;99.90;;;;;;4948725;28;20422;-82
2023/01/10 10:19:28;;;;;;;16.58;3.38;;;6.30;99.90;;;;;;4961696;28;20066;-83
2023/01/10 10:22:08;;;;;;;12.15;1.55;;;6.40;99.90;;;;;;4920291;28;20367;-83
2023/01/10 10:25:01;;;;;;;12.60;2.25;;;6.50;99.90;;;;;;4929338;28;20034;-83
2023/01/10 10:27:35;;;;;;;11.35;1.85;;;6.60;99.90;;;;;;4963851;28;20519;-83
2023/01/10 10:30:18;;;;;;;15.75;3.20;;;6.70;99.90;;;;;;4930472;28;20113;-83
2023/01/10 10:33:06;;;;;;;13.02;2.63;;;6.80;99.90;;;;;;4962085;28;20027;-83
2023/01/10 10:35:38;;;;;;;12.25;1.80;;;6.80;99.90;;;;;;4964849;28;20054;-83
2023/01/10 10:38:34;;;;;;;10.23;2.00;;;7.00;99.90;;;;;;4931879;28;20039;-83
2023/01/10 10:40:59;;;;;;;28.58;3.97;;;7.00;99.90;;;;;;4932402;28;20035;-83
2023/01/10 10:43:33;;;;;;;10.32;2.13;;;7.00;99.90;;;;;;4941633;28;20380;-83
2023/01/10 10:46:04;;;;;;;12.32;2.47;;;7.00;99.90;;;;;;4930910;28;20054;-83
2023/01/10 10:48:35;;;;;;;11.90;1.73;;;7.10;99.90;;;;;;4930401;28;20109;-83
2023/01/10 10:51:03;;;;;;;13.00;2.67;;;7.10;99.90;;;;;;4948446;28;20027;-83
2023/01/10 10:53:28;;;;;;;15.70;2.28;;;7.20;99.90;;;;;;4929298;28;20027;-83
2023/01/10 10:55:54;;;;;;;11.05;1.73;;;7.20;99.90;;;;;;4943385;28;20530;-83
2023/01/10 10:58:20;;;;;;;13.82;2.92;;;7.20;99.90;;;;;;4948019;28;20057;-83
2023/01/10 11:00:46;;;;;;;14.20;2.65;;;7.30;99.90;;;;;;4944264;28;20475;-83
2023/01/10 11:03:34;;;;;;;15.48;2.38;;;7.20;99.90;;;;;;4928990;28;20089;-83
2023/01/10 11:06:02;;;;;;;15.23;2.50;;;7.30;99.90;;;;;;4933841;28;20191;-83
2023/01/10 11:08:28;;;;;;;10.88;2.25;;;7.30;99.90;;;;;;4916888;28;20027;-83
2023/01/10 11:10:55;;;;;;;15.02;1.92;;;7.30;99.90;;;;;;4912737;28;20050;-83
2023/01/10 11:13:33;;;;;;;18.48;2.80;;;7.40;99.90;;;;;;4922402;28;20023;-83
2023/01/10 11:16:00;;;;;;;21.38;2.70;;;7.40;99.90;;;;;;4959826;28;20034;-83
2023/01/10 11:18:27;;;;;;;15.93;2.17;;;7.40;99.90;;;;;;4917379;28;20154;-83
2023/01/10 11:21:00;;;;;;;18.40;2.85;;;7.50;99.90;;;;;;4936357;28;20122;-83
2023/01/10 11:23:29;;;;;;;12.00;1.70;;;7.40;99.90;;;;;;4931744;28;20395;-82
2023/01/10 11:25:55;;;;;;;6.55;0.85;;;7.50;99.90;;;;;;4968075;28;20026;-83
2023/01/10 11:28:22;;;;;;;11.18;1.77;;;7.50;99.90;;;;;;4949710;28;21921;-83
2023/01/10 11:30:48;;;;;;;15.05;2.15;;;7.60;99.90;;;;;;4947751;28;20050;-82
2023/01/10 11:33:19;;;;;;;11.43;2.03;;;7.50;99.90;;;;;;4919446;28;20034;-83
2023/01/10 11:35:56;;;;;;;16.48;2.60;;;7.50;99.90;;;;;;4954133;28;20019;-83
2023/01/10 11:38:23;;;;;;;15.43;3.78;;;7.60;99.90;;;;;;4917554;28;20074;-83
2023/01/10 11:40:59;;;;;;;12.82;2.20;;;7.60;99.90;;;;;;4934900;28;20094;-83
2023/01/10 11:43:35;;;;;;;20.33;2.80;;;7.60;99.90;;;;;;4934838;28;20074;-83
2023/01/10 11:46:11;;;;;;;11.13;1.92;;;7.60;99.90;;;;;;4934375;28;20570;-83
2023/01/10 11:49:02;;;;;;;21.60;2.75;;;7.60;99.90;;;;;;4943785;28;20130;-82
2023/01/10 11:51:30;;;;;;;23.83;3.00;;;7.60;99.90;;;;;;4931831;28;20059;-82
2023/01/10 11:54:08;;;;;;;4.25;1.52;;;7.70;99.90;;;;;;4722026;28;10000648;-83
2023/01/10 11:56:34;;;;;;;21.92;2.85;;;7.70;99.90;;;;;;4593317;28;10000111;-82
2023/01/10 11:59:08;;;;;;;16.92;2.22;;;7.70;99.90;;;;;;4930706;28;20447;-82
2023/01/10 12:01:44;;;;;;;19.15;3.20;;;7.70;99.90;;;;;;4913980;28;20089;-82
2023/01/10 12:04:16;;;;;;;9.27;2.30;;;7.70;99.90;;;;;;4947992;28;20098;-82
2023/01/10 12:06:45;;;;;;;6.65;1.48;;;7.70;99.90;;;;;;4924290;28;20442;-83
2023/01/10 12:09:31;;;;;;;20.13;2.67;;;7.70;99.90;;;;;;4943278;28;20042;-82
2023/01/10 12:12:15;;;;;;;9.90;1.98;;;7.70;99.90;;;;;;4946902;28;20034;-82
2023/01/10 12:14:41;;;;;;;14.77;2.55;;;7.80;99.90;;;;;;4931019;28;20440;-82
2023/01/10 12:17:10;;;;;;;21.02;2.65;;;7.80;99.90;;;;;;4914942;28;20038;-82
2023/01/10 12:19:35;;;;;;;12.27;2.22;;;7.80;99.90;;;;;;4944885;28;20118;-82
2023/01/10 12:22:02;;;;;;;11.02;1.75;;;7.70;99.90;;;;;;4943214;28;20058;-82
2023/01/10 12:24:32;;;;;;;19.58;3.80;;;7.70;99.90;;;;;;4946107;28;20050;-82
2023/01/10 12:26:59;;;;;;;15.85;2.33;;;7.80;99.90;;;;;;4939650;28;20027;-82
2023/01/10 12:29:27;;;;;;;18.98;4.32;;;7.80;99.90;;;;;;4931594;28;20046;-82
2023/01/10 12:31:53;;;;;;;17.23;2.30;;;7.80;99.90;;;;;;4946867;28;20027;-82
2023/01/10 12:34:21;;;;;;;18.08;2.95;;;7.80;99.90;;;;;;4924900;28;20135;-82
2023/01/10 12:37:00;;;;;;;17.58;2.85;;;7.80;99.90;;;;;;4931669;28;20117;-82
2023/01/10 12:39:36;;;;;;;10.80;2.05;;;7.80;99.90;;;;;;4939330;28;20101;-82
2023/01/10 12:44:59;;;;;;;11.30;1.77;;;7.80;99.90;;;;;;4959336;28;20191;-82
2023/01/10 12:47:33;;;;;;;15.80;2.55;;;7.80;99.90;;;;;;4930798;28;20340;-82
2023/01/10 12:50:19;;;;;;;25.55;3.28;;;7.80;99.90;;;;;;4945323;28;20085;-82
2023/01/10 12:52:47;;;;;;;23.42;2.33;;;7.90;99.90;;;;;;4949305;28;20043;-82
2023/01/10 12:55:14;;;;;;;12.20;3.13;;;7.90;99.90;;;;;;4918475;28;20034;-82
2023/01/10 12:57:39;;;;;;;19.00;2.22;;;8.00;99.90;;;;;;4949634;28;20039;-82
2023/01/10 13:00:09;;;;;;;10.13;1.60;;;7.90;99.90;;;;;;4917220;28;20046;-82
2023/01/10 13:02:42;;;;;;;13.57;2.10;;;8.00;99.90;;;;;;4931786;28;20042;-81
2023/01/10 13:05:20;;;;;;;10.80;2.50;;;7.90;99.90;;;;;;4948922;28;20495;-81
2023/01/10 13:07:48;;;;;;;8.02;1.55;;;8.00;99.90;;;;;;4928067;28;20117;-81
2023/01/10 13:10:19;;;;;;;10.77;1.65;;;8.00;99.90;;;;;;4916062;28;20053;-81
2023/01/10 13:13:16;;;;;;;14.50;2.30;;;8.00;99.90;;;;;;4932143;28;20029;-81